createdAt,value
2018-03-26T00:02:03.921Z,94.10
2018-03-26T00:04:31.524Z,94.10
2018-03-26T00:07:00.588Z,94.30
2018-03-26T00:09:28.146Z,94.20
2018-03-26T00:11:55.797Z,94.40
2018-03-26T00:14:23.394Z,94.40
2018-03-26T00:16:50.948Z,94.60
2018-03-26T00:19:18.530Z,94.40
2018-03-26T00:21:46.176Z,94.30
2018-03-26T00:24:13.738Z,94.30
2018-03-26T00:26:41.334Z,94.40
2018-03-26T00:29:09.025Z,94.30
2018-03-26T00:31:36.586Z,94.80
2018-03-26T00:34:04.166Z,94.60
2018-03-26T00:36:31.785Z,94.60
2018-03-26T00:38:59.334Z,94.70
2018-03-26T00:41:26.917Z,94.60
2018-03-26T00:43:54.632Z,95.10
2018-03-26T00:46:22.994Z,94.80
2018-03-26T00:48:52.097Z,94.80
2018-03-26T00:51:19.717Z,94.80
2018-03-26T00:53:47.985Z,95.00
2018-03-26T00:56:15.562Z,95.00
2018-03-26T00:58:43.117Z,95.00
2018-03-26T01:01:10.673Z,95.10
2018-03-26T01:03:38.255Z,95.00
2018-03-26T01:06:05.806Z,94.90
2018-03-26T01:08:33.420Z,94.90
2018-03-26T01:11:01.304Z,95.00
2018-03-26T01:13:28.889Z,94.90
2018-03-26T01:15:56.439Z,95.20
2018-03-26T01:18:24.034Z,95.20
2018-03-26T01:20:51.581Z,95.20
2018-03-26T01:23:19.134Z,95.00
2018-03-26T01:25:46.782Z,95.00
2018-03-26T01:28:14.366Z,94.80
2018-03-26T01:30:42.688Z,94.80
2018-03-26T01:33:10.266Z,94.80
2018-03-26T01:35:37.813Z,94.90
2018-03-26T01:38:05.363Z,95.10
2018-03-26T01:40:32.941Z,94.90
2018-03-26T01:43:00.485Z,94.80
2018-03-26T01:45:28.133Z,94.90
2018-03-26T01:47:55.742Z,95.20
2018-03-26T01:50:24.813Z,95.00
2018-03-26T01:52:52.361Z,95.00
2018-03-26T01:55:20.017Z,94.80
2018-03-26T01:57:47.569Z,95.00
2018-03-26T02:00:15.337Z,94.80
2018-03-26T02:02:42.917Z,94.80
2018-03-26T02:05:10.469Z,95.00
2018-03-26T02:07:38.013Z,95.20
2018-03-26T02:10:05.605Z,95.40
2018-03-26T02:12:33.153Z,94.90
2018-03-26T02:15:00.714Z,94.80
2018-03-26T02:17:28.301Z,95.00
2018-03-26T02:19:55.853Z,94.80
2018-03-26T02:22:24.170Z,95.40
2018-03-26T02:24:51.755Z,95.40
2018-03-26T02:27:19.603Z,95.60
2018-03-26T02:29:47.213Z,95.20
2018-03-26T02:32:14.800Z,95.20
2018-03-26T02:34:42.351Z,95.00
2018-03-26T02:37:09.903Z,95.00
2018-03-26T02:39:38.253Z,95.20
2018-03-26T02:42:05.810Z,95.10
2018-03-26T02:44:33.357Z,94.90
2018-03-26T02:47:01.141Z,95.20
2018-03-26T02:49:28.691Z,95.20
2018-03-26T02:51:56.245Z,95.50
2018-03-26T02:54:24.078Z,95.60
2018-03-26T02:56:51.633Z,95.40
2018-03-26T02:59:19.182Z,95.30
2018-03-26T03:01:46.778Z,95.10
2018-03-26T03:04:14.330Z,95.20
2018-03-26T03:06:41.893Z,95.30
2018-03-26T03:09:09.537Z,95.30
2018-03-26T03:11:37.085Z,95.20
2018-03-26T03:14:04.641Z,95.10
2018-03-26T03:16:32.239Z,95.70
2018-03-26T03:18:59.789Z,95.60
2018-03-26T03:21:27.342Z,95.50
2018-03-26T03:23:54.922Z,95.20
2018-03-26T03:26:22.482Z,95.00
2018-03-26T03:28:50.095Z,94.90
2018-03-26T03:31:17.821Z,95.10
2018-03-26T03:33:46.134Z,95.40
2018-03-26T03:36:13.688Z,95.30
2018-03-26T03:38:41.282Z,95.60
2018-03-26T03:41:08.833Z,95.20
2018-03-26T03:43:36.381Z,95.30
2018-03-26T03:46:03.981Z,95.00
2018-03-26T03:48:32.393Z,94.90
2018-03-26T03:50:59.948Z,94.80
2018-03-26T03:53:27.526Z,95.20
2018-03-26T03:55:55.388Z,94.80
2018-03-26T03:58:22.944Z,95.00
2018-03-26T04:00:50.538Z,94.90
2018-03-26T04:03:18.206Z,95.10
2018-03-26T04:05:45.749Z,95.00
2018-03-26T04:08:13.359Z,95.50
2018-03-26T04:10:40.965Z,95.70
2018-03-26T04:13:08.519Z,95.30
2018-03-26T04:15:36.264Z,95.30
2018-03-26T04:18:03.925Z,95.20
2018-03-26T04:20:31.687Z,95.40
2018-03-26T04:22:59.284Z,95.60
2018-03-26T04:25:26.838Z,95.30
2018-03-26T04:27:54.565Z,95.10
2018-03-26T04:30:22.158Z,95.00
2018-03-26T04:32:49.717Z,95.20
2018-03-26T04:35:17.281Z,95.40
2018-03-26T04:37:44.866Z,95.60
2018-03-26T04:40:13.178Z,95.10
2018-03-26T04:42:40.730Z,95.10
2018-03-26T04:45:08.354Z,95.30
2018-03-26T04:47:36.086Z,95.10
2018-03-26T04:50:03.710Z,95.20
2018-03-26T04:52:31.319Z,95.40
2018-03-26T04:54:58.873Z,95.50
2018-03-26T04:57:26.419Z,95.50
2018-03-26T04:59:54.018Z,95.20
2018-03-26T05:02:22.337Z,95.40
2018-03-26T05:04:49.890Z,95.30
2018-03-26T05:07:17.473Z,95.40
2018-03-26T05:09:45.175Z,95.20
2018-03-26T05:12:12.845Z,95.00
2018-03-26T05:14:40.569Z,95.00
2018-03-26T05:17:08.190Z,95.00
2018-03-26T05:19:35.755Z,95.00
2018-03-26T05:22:03.366Z,95.00
2018-03-26T05:24:31.692Z,94.80
2018-03-26T05:26:59.295Z,94.80
2018-03-26T05:29:27.823Z,95.30
2018-03-26T05:31:55.382Z,95.30
2018-03-26T05:34:22.942Z,95.10
2018-03-26T05:36:50.568Z,95.20
2018-03-26T05:39:18.896Z,95.50
2018-03-26T05:41:46.462Z,95.50
2018-03-26T05:44:14.057Z,95.30
2018-03-26T05:46:41.610Z,95.20
2018-03-26T05:49:09.921Z,95.30
2018-03-26T05:51:37.798Z,95.30
2018-03-26T05:54:05.377Z,95.20
2018-03-26T05:56:32.945Z,95.10
2018-03-26T05:59:00.600Z,95.30
2018-03-26T06:01:28.293Z,95.60
2018-03-26T06:03:55.866Z,95.40
2018-03-26T06:06:23.526Z,95.10
2018-03-26T06:08:51.099Z,94.80
2018-03-26T06:11:18.657Z,95.00
2018-03-26T06:13:46.260Z,94.80
2018-03-26T06:16:14.783Z,94.40
2018-03-26T06:18:42.638Z,94.70
2018-03-26T06:21:11.006Z,94.40
2018-03-26T06:23:38.593Z,94.40
2018-03-26T06:26:06.173Z,94.40
2018-03-26T06:28:33.914Z,94.50
2018-03-26T06:31:01.507Z,94.60
2018-03-26T06:33:29.068Z,94.20
2018-03-26T06:35:56.669Z,94.60
2018-03-26T06:38:41.666Z,94.50
2018-03-26T06:41:09.410Z,94.50
2018-03-26T06:43:36.962Z,94.00
2018-03-26T06:46:04.525Z,94.40
2018-03-26T06:48:32.123Z,94.30
2018-03-26T06:50:59.678Z,94.20
2018-03-26T06:53:27.538Z,94.10
2018-03-26T06:55:55.178Z,94.40
2018-03-26T06:58:22.738Z,94.40
2018-03-26T07:00:50.294Z,95.00
2018-03-26T07:03:17.892Z,94.60
2018-03-26T07:05:45.446Z,94.80
2018-03-26T07:08:12.993Z,94.80
2018-03-26T07:10:40.647Z,94.90
2018-03-26T07:13:08.194Z,94.70
2018-03-26T07:15:35.752Z,95.20
2018-03-26T07:18:03.358Z,95.10
2018-03-26T07:20:31.081Z,94.90
2018-03-26T07:22:58.782Z,94.30
2018-03-26T07:25:26.376Z,94.40
2018-03-26T07:27:53.928Z,93.80
2018-03-26T07:30:22.321Z,94.10
2018-03-26T07:32:50.002Z,94.10
2018-03-26T07:35:17.550Z,94.60
2018-03-26T07:37:45.128Z,94.90
2018-03-26T07:40:12.753Z,94.80
2018-03-26T07:42:40.852Z,94.40
2018-03-26T07:45:08.409Z,94.30
2018-03-26T07:47:36.013Z,94.60
2018-03-26T07:50:03.823Z,94.80
2018-03-26T07:52:31.567Z,94.50
2018-03-26T07:54:59.464Z,94.60
2018-03-26T07:57:27.036Z,94.60
2018-03-26T07:59:54.606Z,94.50
2018-03-26T08:02:22.956Z,94.40
2018-03-26T08:04:50.513Z,94.50
2018-03-26T08:07:18.079Z,93.90
2018-03-26T08:09:45.676Z,93.80
2018-03-26T08:12:13.414Z,94.00
2018-03-26T08:14:40.982Z,93.70
2018-03-26T08:17:08.742Z,93.00
2018-03-26T08:19:36.289Z,93.50
2018-03-26T08:22:03.909Z,93.80
2018-03-26T08:24:31.503Z,93.20
2018-03-26T08:26:59.046Z,93.10
2018-03-26T08:29:26.691Z,93.70
2018-03-26T08:31:54.270Z,93.10
2018-03-26T08:34:21.832Z,92.40
2018-03-26T08:36:49.590Z,92.00
2018-03-26T08:39:17.245Z,92.00
2018-03-26T08:41:44.795Z,91.70
2018-03-26T08:44:12.538Z,91.70
2018-03-26T08:46:40.609Z,92.00
2018-03-26T08:49:08.234Z,91.70
2018-03-26T08:51:35.783Z,91.70
2018-03-26T08:54:03.373Z,91.40
2018-03-26T08:56:31.307Z,91.20
2018-03-26T08:58:58.861Z,91.00
2018-03-26T09:01:26.446Z,91.30
2018-03-26T09:03:54.885Z,90.70
2018-03-26T09:06:22.460Z,90.70
2018-03-26T09:08:50.057Z,90.70
2018-03-26T09:11:18.371Z,90.80
2018-03-26T09:13:45.934Z,90.70
2018-03-26T09:16:13.526Z,90.00
2018-03-26T09:18:41.074Z,90.20
2018-03-26T09:21:08.934Z,89.20
2018-03-26T09:23:36.797Z,88.50
2018-03-26T09:26:04.459Z,89.90
2018-03-26T09:28:31.989Z,89.10
2018-03-26T09:30:59.802Z,89.40
2018-03-26T09:33:27.350Z,86.70
2018-03-26T09:35:55.392Z,86.30
2018-03-26T09:38:23.002Z,85.60
2018-03-26T09:40:51.661Z,85.10
2018-03-26T09:43:19.548Z,85.10
2018-03-26T09:45:48.390Z,85.10
2018-03-26T09:48:16.087Z,84.50
2018-03-26T09:50:44.406Z,84.90
2018-03-26T09:53:12.298Z,85.00
2018-03-26T09:55:39.855Z,82.60
2018-03-26T09:58:07.689Z,83.70
2018-03-26T10:00:41.147Z,83.00
2018-03-26T10:03:08.733Z,82.00
2018-03-26T10:05:36.294Z,81.50
2018-03-26T10:08:04.953Z,79.50
2018-03-26T10:10:33.267Z,77.70
2018-03-26T10:13:01.281Z,77.70
2018-03-26T10:15:29.025Z,76.60
2018-03-26T10:17:56.922Z,76.70
2018-03-26T10:20:25.086Z,76.60
2018-03-26T10:22:52.799Z,74.50
2018-03-26T10:25:20.399Z,75.20
2018-03-26T10:27:48.861Z,75.80
2018-03-26T10:30:16.798Z,74.40
2018-03-26T10:32:44.771Z,76.20
2018-03-26T10:35:12.377Z,73.80
2018-03-26T10:37:40.149Z,72.80
2018-03-26T10:40:07.821Z,73.30
2018-03-26T10:42:35.370Z,73.70
2018-03-26T10:47:35.974Z,69.60
2018-03-26T10:50:03.566Z,70.40
2018-03-26T10:52:31.294Z,72.40
2018-03-26T10:54:59.045Z,71.90
2018-03-26T10:57:26.646Z,71.10
2018-03-26T10:59:54.569Z,70.70
2018-03-26T11:02:22.114Z,70.80
2018-03-26T11:04:50.778Z,69.20
2018-03-26T11:07:18.327Z,69.20
2018-03-26T11:09:46.033Z,67.80
2018-03-26T11:12:13.820Z,69.60
2018-03-26T11:14:41.566Z,69.90
2018-03-26T11:17:09.114Z,71.20
2018-03-26T11:19:37.242Z,70.00
2018-03-26T11:22:06.473Z,69.30
2018-03-26T11:24:34.790Z,72.60
2018-03-26T11:27:02.396Z,72.50
2018-03-26T11:29:30.712Z,69.00
2018-03-26T11:31:58.254Z,68.90
2018-03-26T11:34:26.035Z,68.30
2018-03-26T11:36:53.841Z,70.00
2018-03-26T11:39:22.186Z,68.90
2018-03-26T11:41:49.984Z,68.80
2018-03-26T11:44:17.653Z,70.00
2018-03-26T11:49:20.177Z,68.90
2018-03-26T11:51:48.000Z,70.60
2018-03-26T11:54:16.488Z,71.70
2018-03-26T11:56:44.716Z,71.70
2018-03-26T11:59:12.342Z,73.20
2018-03-26T12:01:40.462Z,74.70
2018-03-26T12:04:08.312Z,76.20
2018-03-26T12:06:36.854Z,75.80
2018-03-26T12:09:05.296Z,76.20
2018-03-26T12:11:32.954Z,76.10
2018-03-26T12:14:00.916Z,76.60
2018-03-26T12:16:28.908Z,76.00
2018-03-26T12:18:56.779Z,76.00
2018-03-26T12:21:24.362Z,76.80
2018-03-26T12:24:03.767Z,78.00
2018-03-26T12:26:31.325Z,78.10
2018-03-26T12:29:12.202Z,77.40
2018-03-26T12:31:40.013Z,78.10
2018-03-26T12:34:19.563Z,77.30
2018-03-26T12:36:47.243Z,77.50
2018-03-26T12:39:15.031Z,76.80
2018-03-26T12:41:43.197Z,77.70
2018-03-26T12:44:11.672Z,76.40
2018-03-26T12:46:44.384Z,76.60
2018-03-26T12:49:11.955Z,76.30
2018-03-26T12:51:51.508Z,76.70
2018-03-26T12:54:19.300Z,77.30
2018-03-26T12:56:46.986Z,75.70
2018-03-26T12:59:14.873Z,76.00
2018-03-26T13:01:55.219Z,75.20
2018-03-26T13:04:23.675Z,75.00
2018-03-26T13:06:51.689Z,75.00
2018-03-26T13:09:19.358Z,74.80
2018-03-26T13:11:47.327Z,75.30
2018-03-26T13:14:15.361Z,74.80
2018-03-26T13:16:42.938Z,74.20
2018-03-26T13:19:10.727Z,74.90
2018-03-26T13:21:38.564Z,74.50
2018-03-26T13:24:07.096Z,74.10
2018-03-26T13:26:34.919Z,74.10
2018-03-26T13:29:03.438Z,74.50
2018-03-26T13:31:31.029Z,74.50
2018-03-26T13:33:58.618Z,73.90
2018-03-26T13:36:26.525Z,73.70
2018-03-26T13:38:54.087Z,74.70
2018-03-26T13:41:22.013Z,73.70
2018-03-26T13:43:49.583Z,73.70
2018-03-26T13:46:17.406Z,74.10
2018-03-26T13:48:46.114Z,72.80
2018-03-26T13:51:14.532Z,72.80
2018-03-26T13:53:42.218Z,72.70
2018-03-26T13:56:09.809Z,72.90
2018-03-26T13:58:37.545Z,72.60
2018-03-26T14:01:05.390Z,73.20
2018-03-26T14:03:33.917Z,72.80
2018-03-26T14:06:01.478Z,72.80
2018-03-26T14:08:40.955Z,72.80
2018-03-26T14:11:20.128Z,71.80
2018-03-26T14:13:59.737Z,73.30
2018-03-26T14:16:39.072Z,73.00
2018-03-26T14:19:06.882Z,74.30
2018-03-26T14:21:34.506Z,72.60
2018-03-26T14:24:02.223Z,73.40
2018-03-26T14:26:30.270Z,72.90
2018-03-26T14:28:58.211Z,74.40
2018-03-26T14:31:25.787Z,73.40
2018-03-26T14:33:53.408Z,72.90
2018-03-26T14:36:21.349Z,73.20
2018-03-26T14:38:48.971Z,74.00
2018-03-26T14:41:16.656Z,74.60
2018-03-26T14:43:44.289Z,75.10
2018-03-26T14:46:11.865Z,75.70
2018-03-26T14:48:40.539Z,75.80
2018-03-26T14:51:08.106Z,75.80
2018-03-26T14:53:35.822Z,74.90
2018-03-26T14:56:03.430Z,75.50
2018-03-26T14:58:31.052Z,75.70
2018-03-26T15:00:58.623Z,76.50
2018-03-26T15:03:26.261Z,76.70
2018-03-26T15:05:54.349Z,76.80
2018-03-26T15:08:22.400Z,75.80
2018-03-26T15:10:50.088Z,76.80
2018-03-26T15:13:17.969Z,78.70
2018-03-26T15:15:45.597Z,76.80
2018-03-26T15:18:13.800Z,77.60
2018-03-26T15:20:43.351Z,76.60
2018-03-26T15:23:11.266Z,76.60
2018-03-26T15:25:39.096Z,75.90
2018-03-26T15:28:06.681Z,76.20
2018-03-26T15:30:34.474Z,76.60
2018-03-26T15:33:02.561Z,76.60
2018-03-26T15:35:30.455Z,78.30
2018-03-26T15:37:58.027Z,77.80
2018-03-26T15:40:25.766Z,77.00
2018-03-26T15:42:53.462Z,78.40
2018-03-26T15:45:21.277Z,78.40
2018-03-26T15:47:49.106Z,79.20
2018-03-26T15:50:17.454Z,79.80
2018-03-26T15:52:45.014Z,79.80
2018-03-26T15:55:12.776Z,81.00
2018-03-26T15:57:40.348Z,81.10
2018-03-26T16:00:07.970Z,80.20
2018-03-26T16:02:41.277Z,80.30
2018-03-26T16:05:09.035Z,81.10
2018-03-26T16:07:36.763Z,81.00
2018-03-26T16:10:05.358Z,81.40
2018-03-26T16:12:32.949Z,81.40
2018-03-26T16:15:00.759Z,82.60
2018-03-26T16:17:29.626Z,82.30
2018-03-26T16:19:57.731Z,82.20
2018-03-26T16:22:26.352Z,81.40
2018-03-26T16:24:54.212Z,81.40
2018-03-26T16:27:21.881Z,82.00
2018-03-26T16:29:49.824Z,82.80
2018-03-26T16:32:18.410Z,83.00
2018-03-26T16:34:46.058Z,82.90
2018-03-26T16:37:13.957Z,83.10
2018-03-26T16:39:41.595Z,84.20
2018-03-26T16:45:13.019Z,85.10
2018-03-26T16:47:40.940Z,85.90
2018-03-26T16:50:08.502Z,86.90
2018-03-26T16:52:36.264Z,87.70
2018-03-26T16:55:03.887Z,88.40
2018-03-26T16:57:32.515Z,87.10
2018-03-26T17:00:00.117Z,87.10
2018-03-26T17:02:27.836Z,87.50
2018-03-26T17:04:55.676Z,87.40
2018-03-26T17:07:23.486Z,87.70
2018-03-26T17:09:51.251Z,88.10
2018-03-26T17:12:19.298Z,88.60
2018-03-26T17:14:46.903Z,88.80
2018-03-26T17:17:14.670Z,89.10
2018-03-26T17:19:43.025Z,89.90
2018-03-26T17:22:10.675Z,89.80
2018-03-26T17:24:38.402Z,89.70
2018-03-26T17:27:06.189Z,90.10
2018-03-26T17:29:33.790Z,90.30
2018-03-26T17:32:02.353Z,90.40
2018-03-26T17:34:30.292Z,90.40
2018-03-26T17:36:58.033Z,90.40
2018-03-26T17:39:25.659Z,90.50
2018-03-26T17:41:53.410Z,90.60
2018-03-26T17:44:21.116Z,90.90
2018-03-26T17:46:48.724Z,90.90
2018-03-26T17:49:16.466Z,90.90
2018-03-26T17:51:44.964Z,90.90
2018-03-26T17:54:12.601Z,90.80
2018-03-26T17:56:40.198Z,91.30
2018-03-26T17:59:07.907Z,91.20
2018-03-26T18:01:35.475Z,91.10
2018-03-26T18:04:03.283Z,91.20
2018-03-26T18:06:30.934Z,91.30
2018-03-26T18:08:58.769Z,91.10
2018-03-26T18:11:26.473Z,91.20
2018-03-26T18:13:54.134Z,91.10
2018-03-26T18:16:22.522Z,91.30
2018-03-26T18:18:50.499Z,91.30
2018-03-26T18:21:19.024Z,91.50
2018-03-26T18:23:46.800Z,91.50
2018-03-26T18:26:14.473Z,91.80
2018-03-26T18:28:42.559Z,91.90
2018-03-26T18:31:10.391Z,91.50
2018-03-26T18:33:37.972Z,91.60
2018-03-26T18:36:05.571Z,91.80
2018-03-26T18:38:33.238Z,91.80
2018-03-26T18:41:00.835Z,92.30
2018-03-26T18:43:28.470Z,92.10
2018-03-26T18:45:56.232Z,92.00
2018-03-26T18:48:24.160Z,92.00
2018-03-26T18:50:52.328Z,92.00
2018-03-26T18:53:20.081Z,92.10
2018-03-26T18:55:48.326Z,92.20
2018-03-26T18:58:16.097Z,92.20
2018-03-26T19:00:43.682Z,92.10
2018-03-26T19:03:11.281Z,92.10
2018-03-26T19:05:38.907Z,92.10
2018-03-26T19:08:07.999Z,92.50
2018-03-26T19:10:35.769Z,92.40
2018-03-26T19:13:03.553Z,92.40
2018-03-26T19:15:31.194Z,92.10
2018-03-26T19:17:59.017Z,92.50
2018-03-26T19:20:27.060Z,92.40
2018-03-26T19:22:54.654Z,92.30
2018-03-26T19:25:22.474Z,91.90
2018-03-26T19:27:50.150Z,92.00
2018-03-26T19:30:17.743Z,92.50
2018-03-26T19:32:45.668Z,92.50
2018-03-26T19:35:13.318Z,92.50
2018-03-26T19:37:41.261Z,92.80
2018-03-26T19:40:09.742Z,92.70
2018-03-26T19:42:38.156Z,92.80
2018-03-26T19:45:06.044Z,92.80
2018-03-26T19:47:33.836Z,93.10
2018-03-26T19:50:01.439Z,92.90
2018-03-26T19:52:29.007Z,93.00
2018-03-26T19:54:56.711Z,93.00
2018-03-26T19:57:24.389Z,93.10
2018-03-26T19:59:52.417Z,93.40
2018-03-26T20:02:20.114Z,93.20
2018-03-26T20:04:48.007Z,93.00
2018-03-26T20:07:16.355Z,93.70
2018-03-26T20:09:44.147Z,93.70
2018-03-26T20:12:12.538Z,93.50
2018-03-26T20:14:40.457Z,93.50
2018-03-26T20:17:08.052Z,93.30
2018-03-26T20:19:36.364Z,93.20
2018-03-26T20:22:03.948Z,93.20
2018-03-26T20:24:31.519Z,93.10
2018-03-26T20:27:00.577Z,92.70
2018-03-26T20:29:28.339Z,93.00
2018-03-26T20:31:56.167Z,93.00
2018-03-26T20:34:24.593Z,93.60
2018-03-26T20:36:53.065Z,93.60
2018-03-26T20:39:20.671Z,93.60
2018-03-26T20:41:48.297Z,93.60
2018-03-26T20:44:15.873Z,93.40
2018-03-26T20:46:44.122Z,93.30
2018-03-26T20:49:11.871Z,93.50
2018-03-26T20:51:39.641Z,93.60
2018-03-26T20:54:07.228Z,93.60
2018-03-26T20:56:35.008Z,93.70
2018-03-26T20:59:03.033Z,93.90
2018-03-26T21:01:30.638Z,93.90
2018-03-26T21:03:59.053Z,94.00
2018-03-26T21:06:26.645Z,94.40
2018-03-26T21:08:54.197Z,93.80
2018-03-26T21:11:21.794Z,93.80
2018-03-26T21:13:50.127Z,93.90
2018-03-26T21:16:17.918Z,93.80
2018-03-26T21:18:45.925Z,93.70
2018-03-26T21:21:13.481Z,93.80
2018-03-26T21:23:41.813Z,94.00
2018-03-26T21:26:09.475Z,94.00
2018-03-26T21:28:37.042Z,93.90
2018-03-26T21:31:05.329Z,93.90
2018-03-26T21:33:33.695Z,94.20
2018-03-26T21:36:03.185Z,94.30
2018-03-26T21:38:30.788Z,94.20
2018-03-26T21:40:59.365Z,94.10
2018-03-26T21:43:26.929Z,94.10
2018-03-26T21:45:55.300Z,94.20
2018-03-26T21:48:23.372Z,94.20
2018-03-26T21:50:50.970Z,94.50
2018-03-26T21:53:18.541Z,94.70
2018-03-26T21:55:46.710Z,94.60
2018-03-26T21:58:14.269Z,94.60
2018-03-26T22:00:41.923Z,94.80
2018-03-26T22:03:09.767Z,95.00
2018-03-26T22:05:37.496Z,94.90
2018-03-26T22:08:05.254Z,94.90
2018-03-26T22:10:33.391Z,95.30
2018-03-26T22:13:01.025Z,95.10
2018-03-26T22:15:28.766Z,95.30
2018-03-26T22:17:56.650Z,95.10
2018-03-26T22:20:24.247Z,95.30
2018-03-26T22:22:52.156Z,95.60
2018-03-26T22:25:20.504Z,95.60
2018-03-26T22:27:48.534Z,95.60
2018-03-26T22:30:16.627Z,95.60
2018-03-26T22:32:44.245Z,95.70
2018-03-26T22:35:11.820Z,95.60
2018-03-26T22:37:39.384Z,95.40
2018-03-26T22:40:07.042Z,95.40
2018-03-26T22:42:34.634Z,95.40
2018-03-26T22:45:02.281Z,95.40
2018-03-26T22:47:30.270Z,95.30
2018-03-26T22:49:57.829Z,95.40
2018-03-26T22:52:25.554Z,95.60
2018-03-26T22:54:53.154Z,95.70
2018-03-26T22:57:20.930Z,95.80
2018-03-26T22:59:48.595Z,96.00
2018-03-26T23:02:16.206Z,95.60
2018-03-26T23:04:44.126Z,95.40
2018-03-26T23:07:12.070Z,95.40
2018-03-26T23:09:39.958Z,95.70
2018-03-26T23:12:07.914Z,96.20
2018-03-26T23:14:35.538Z,96.00
2018-03-26T23:17:03.217Z,96.00
2018-03-26T23:19:31.012Z,96.30
2018-03-26T23:21:58.987Z,96.40
2018-03-26T23:24:26.841Z,96.70
2018-03-26T23:26:54.598Z,96.70
2018-03-26T23:29:22.166Z,96.80
2018-03-26T23:31:49.775Z,96.90
2018-03-26T23:34:17.335Z,96.90
2018-03-26T23:36:45.232Z,97.40
2018-03-26T23:39:12.841Z,97.00
2018-03-26T23:41:40.394Z,96.80
2018-03-26T23:44:08.179Z,96.80
2018-03-26T23:46:35.858Z,96.50
2018-03-26T23:49:03.551Z,96.70
2018-03-26T23:51:31.115Z,96.80
2018-03-26T23:53:58.896Z,96.80
2018-03-26T23:56:26.487Z,96.50
2018-03-26T23:58:54.137Z,96.50
